createdAt,value
2022-11-03T00:03:45.113Z,2.27
2022-11-03T00:09:11.628Z,3.07
2022-11-03T00:14:34.673Z,2.00
2022-11-03T00:19:57.773Z,2.37
2022-11-03T00:25:22.230Z,2.67
2022-11-03T00:30:45.353Z,1.60
2022-11-03T00:36:09.463Z,2.07
2022-11-03T00:41:34.085Z,2.20
2022-11-03T00:46:57.623Z,2.17
2022-11-03T00:52:20.734Z,2.47
2022-11-03T00:57:45.233Z,3.80
2022-11-03T01:03:08.476Z,2.37
2022-11-03T01:08:33.754Z,2.40
2022-11-03T01:13:58.425Z,2.87
2022-11-03T01:19:21.780Z,2.10
2022-11-03T01:24:45.490Z,1.83
2022-11-03T01:30:11.029Z,3.73
2022-11-03T01:35:34.133Z,1.70
2022-11-03T01:40:57.206Z,1.60
2022-11-03T01:46:24.736Z,2.90
2022-11-03T01:51:50.062Z,2.23
2022-11-03T01:57:16.703Z,2.77
2022-11-03T02:02:41.562Z,1.50
2022-11-03T02:13:35.678Z,4.30
2022-11-03T02:19:01.515Z,2.27
2022-11-03T02:24:29.007Z,1.67
2022-11-03T02:29:53.431Z,2.70
2022-11-03T02:35:22.115Z,1.97
2022-11-03T02:40:49.434Z,2.93
2022-11-03T02:46:16.161Z,2.13
2022-11-03T02:51:39.193Z,1.53
2022-11-03T02:57:06.004Z,2.70
2022-11-03T03:02:34.370Z,1.90
2022-11-03T03:08:02.074Z,1.93
2022-11-03T03:13:25.380Z,2.00
2022-11-03T03:18:52.342Z,2.50
2022-11-03T03:24:16.942Z,1.50
2022-11-03T03:29:42.888Z,2.40
2022-11-03T03:35:11.007Z,1.97
2022-11-03T03:40:37.670Z,2.20
2022-11-03T03:46:05.492Z,2.10
2022-11-03T03:51:31.052Z,2.00
2022-11-03T03:56:57.724Z,3.57
2022-11-03T04:02:20.888Z,2.03
2022-11-03T04:07:47.965Z,1.70
2022-11-03T04:13:28.459Z,3.10
2022-11-03T04:19:09.179Z,1.67
2022-11-03T04:24:33.635Z,1.77
2022-11-03T04:29:59.260Z,2.43
2022-11-03T04:35:25.527Z,1.53
2022-11-03T04:40:53.803Z,1.90
2022-11-03T04:46:19.263Z,1.77
2022-11-03T04:51:42.440Z,1.83
2022-11-03T04:57:10.352Z,2.23
2022-11-03T05:02:33.455Z,1.73
2022-11-03T05:07:58.295Z,1.87
2022-11-03T05:13:25.345Z,2.13
2022-11-03T05:18:50.646Z,2.30
2022-11-03T05:29:44.513Z,1.80
2022-11-03T05:35:22.380Z,2.30
2022-11-03T05:40:45.427Z,3.03
2022-11-03T05:46:12.348Z,3.37
2022-11-03T05:51:36.283Z,1.93
2022-11-03T05:56:59.615Z,2.47
2022-11-03T06:02:34.053Z,2.90
2022-11-03T06:07:59.059Z,2.77
2022-11-03T06:13:24.810Z,2.10
2022-11-03T06:18:49.245Z,1.67
2022-11-03T06:24:14.999Z,2.40
2022-11-03T06:29:40.048Z,2.60
2022-11-03T06:35:07.127Z,1.70
2022-11-03T06:40:37.359Z,2.43
2022-11-03T06:46:02.508Z,1.73
2022-11-03T06:51:28.747Z,1.93
2022-11-03T06:56:53.457Z,2.63
2022-11-03T07:02:36.256Z,2.47
2022-11-03T07:08:04.664Z,2.30
2022-11-03T07:13:28.761Z,3.03
2022-11-03T07:18:51.961Z,1.63
2022-11-03T07:24:19.118Z,2.00
2022-11-03T07:29:45.320Z,1.37
2022-11-03T07:35:25.700Z,1.87
2022-11-03T07:40:50.534Z,2.20
2022-11-03T07:46:15.412Z,2.00
2022-11-03T07:51:42.414Z,1.93
2022-11-03T07:57:08.944Z,2.03
2022-11-03T08:02:33.598Z,1.87
2022-11-03T08:07:56.980Z,2.73
2022-11-03T08:13:21.499Z,1.80
2022-11-03T08:18:44.807Z,1.90
2022-11-03T08:24:08.366Z,1.90
2022-11-03T08:29:32.897Z,2.00
2022-11-03T08:34:56.007Z,2.13
2022-11-03T08:40:41.589Z,2.50
2022-11-03T08:46:15.854Z,2.47
2022-11-03T08:51:44.451Z,1.60
2022-11-03T08:57:07.988Z,2.57
2022-11-03T09:02:40.726Z,4.43
2022-11-03T09:13:46.858Z,3.27
2022-11-03T09:19:11.309Z,1.43
2022-11-03T09:24:34.541Z,3.50
2022-11-03T09:30:12.295Z,1.50
2022-11-03T09:35:37.532Z,2.10
2022-11-03T09:41:00.935Z,1.87
2022-11-03T09:46:24.206Z,1.87
2022-11-03T09:51:48.727Z,1.60
2022-11-03T09:57:13.939Z,1.77
2022-11-03T10:02:38.806Z,1.57
2022-11-03T10:08:04.787Z,2.57
2022-11-03T10:13:30.731Z,2.23
2022-11-03T10:18:53.926Z,2.13
2022-11-03T10:24:18.747Z,1.70
2022-11-03T10:29:43.699Z,2.07
2022-11-03T10:35:35.362Z,2.23
2022-11-03T10:41:12.783Z,1.87
2022-11-03T10:46:50.166Z,1.50
2022-11-03T10:52:19.709Z,2.00
2022-11-03T10:57:45.493Z,2.37
2022-11-03T11:03:10.034Z,1.63
2022-11-03T11:08:34.961Z,2.40
2022-11-03T11:14:24.476Z,2.97
2022-11-03T11:20:22.289Z,1.40
2022-11-03T11:26:06.552Z,1.80
2022-11-03T11:31:32.225Z,2.70
2022-11-03T11:37:28.442Z,2.60
2022-11-03T11:43:28.084Z,1.87
2022-11-03T11:49:03.903Z,1.53
2022-11-03T11:54:27.092Z,1.80
2022-11-03T11:59:53.254Z,1.80
2022-11-03T12:05:22.810Z,2.33
2022-11-03T12:10:53.456Z,1.90
2022-11-03T12:16:39.860Z,2.57
2022-11-03T12:22:08.326Z,1.63
2022-11-03T12:27:47.134Z,1.87
2022-11-03T12:33:10.956Z,1.20
2022-11-03T12:38:35.741Z,1.63
2022-11-03T12:43:58.867Z,1.40
2022-11-03T12:49:22.099Z,1.47
2022-11-03T12:54:47.862Z,2.07
2022-11-03T13:00:12.561Z,1.17
2022-11-03T13:05:35.724Z,1.47
2022-11-03T13:11:00.518Z,1.37
2022-11-03T13:16:23.817Z,1.23
2022-11-03T13:21:46.902Z,1.60
2022-11-03T13:27:11.397Z,2.07
2022-11-03T13:32:34.690Z,1.40
2022-11-03T13:37:59.455Z,1.57
2022-11-03T13:43:28.452Z,1.40
2022-11-03T14:00:22.495Z,1.73
2022-11-03T14:05:45.611Z,1.50
2022-11-03T14:11:22.786Z,2.37
2022-11-03T14:16:47.393Z,0.90
2022-11-03T14:22:10.616Z,1.03
2022-11-03T14:27:33.799Z,1.10
2022-11-03T14:32:59.761Z,1.60
2022-11-03T14:38:23.105Z,1.50
2022-11-03T14:43:46.696Z,1.30
2022-11-03T14:49:11.273Z,1.27
2022-11-03T14:54:34.472Z,1.10
2022-11-03T14:59:57.550Z,1.40
2022-11-03T15:05:42.394Z,2.17
2022-11-03T15:11:07.830Z,1.30
2022-11-03T15:16:32.613Z,1.23
2022-11-03T15:21:57.099Z,1.23
2022-11-03T15:27:20.262Z,1.00
2022-11-03T15:32:43.389Z,1.10
2022-11-03T15:38:08.371Z,1.13
2022-11-03T15:43:31.759Z,1.73
2022-11-03T15:48:57.602Z,1.23
2022-11-03T15:54:22.447Z,3.47
2022-11-03T15:59:45.527Z,1.10
2022-11-03T16:05:09.734Z,1.60
2022-11-03T16:10:34.209Z,1.27
2022-11-03T16:15:57.388Z,2.10
2022-11-03T16:21:20.543Z,1.10
2022-11-03T16:26:45.175Z,1.53
2022-11-03T16:32:08.305Z,2.07
2022-11-03T16:37:31.417Z,1.90
2022-11-03T16:42:55.911Z,2.37
2022-11-03T16:48:19.027Z,1.50
2022-11-03T16:53:42.319Z,1.23
2022-11-03T16:59:06.904Z,2.10
2022-11-03T17:10:16.606Z,1.30
2022-11-03T17:15:41.034Z,1.70
2022-11-03T17:21:04.154Z,1.07
2022-11-03T17:26:31.157Z,1.30
2022-11-03T17:31:55.704Z,1.97
2022-11-03T17:37:18.842Z,1.57
2022-11-03T17:42:42.048Z,1.90
2022-11-03T17:48:06.996Z,1.70
2022-11-03T17:53:32.279Z,1.97
2022-11-03T17:58:55.742Z,3.50
2022-11-03T18:04:20.253Z,2.23
2022-11-03T18:09:45.335Z,2.70
2022-11-03T18:15:12.125Z,2.10
2022-11-03T18:20:36.740Z,1.93
2022-11-03T18:26:00.273Z,2.23
2022-11-03T18:31:25.252Z,2.83
2022-11-03T18:36:49.757Z,2.77
2022-11-03T18:42:14.147Z,2.63
2022-11-03T18:47:37.208Z,2.60
2022-11-03T18:53:01.689Z,2.47
2022-11-03T18:58:25.993Z,2.20
2022-11-03T19:03:49.264Z,2.60
2022-11-03T19:09:16.170Z,3.33
2022-11-03T19:14:41.124Z,2.23
2022-11-03T19:20:12.383Z,2.97
2022-11-03T19:25:38.163Z,3.37
2022-11-03T19:31:02.051Z,3.10
2022-11-03T19:36:25.285Z,3.23
2022-11-03T19:42:07.279Z,3.50
2022-11-03T19:47:34.631Z,4.73
2022-11-03T19:53:02.521Z,5.23
2022-11-03T19:58:29.147Z,4.87
2022-11-03T20:03:52.262Z,5.10
2022-11-03T20:09:18.410Z,4.30
2022-11-03T20:14:42.945Z,4.23
2022-11-03T20:20:06.833Z,3.87
2022-11-03T20:25:34.984Z,4.93
2022-11-03T20:31:00.936Z,5.20
2022-11-03T20:36:24.099Z,5.67
2022-11-03T20:41:48.845Z,5.67
2022-11-03T20:47:14.447Z,4.93
2022-11-03T20:52:37.956Z,5.37
2022-11-03T20:58:01.134Z,5.40
2022-11-03T21:09:12.542Z,2.30
2022-11-03T21:14:35.613Z,1.10
2022-11-03T21:20:02.180Z,1.20
2022-11-03T21:25:25.458Z,1.10
2022-11-03T21:30:50.043Z,0.90
2022-11-03T21:36:14.419Z,1.20
2022-11-03T21:41:55.038Z,0.60
2022-11-03T21:47:21.153Z,1.17
2022-11-03T21:52:45.589Z,0.83
2022-11-03T21:58:08.916Z,0.70
2022-11-03T22:03:31.951Z,0.60
2022-11-03T22:08:56.365Z,0.70
2022-11-03T22:14:21.730Z,0.70
2022-11-03T22:20:02.580Z,0.63
2022-11-03T22:25:44.849Z,2.67
2022-11-03T22:31:25.629Z,2.10
2022-11-03T22:36:48.727Z,0.60
2022-11-03T22:42:31.291Z,0.50
2022-11-03T22:47:57.132Z,0.97
2022-11-03T22:53:38.097Z,0.63
2022-11-03T22:59:02.621Z,0.50
2022-11-03T23:04:28.574Z,0.70
2022-11-03T23:09:51.678Z,0.70
2022-11-03T23:15:34.160Z,0.60
2022-11-03T23:21:09.654Z,1.90
2022-11-03T23:26:32.695Z,0.93
2022-11-03T23:31:57.379Z,0.60
2022-11-03T23:37:21.505Z,0.53
2022-11-03T23:42:44.548Z,0.60
2022-11-03T23:48:26.571Z,0.80
2022-11-03T23:53:50.379Z,0.60
2022-11-03T23:59:14.533Z,0.77
